Time;durP1;ratioP1;P1;durP2;ratioP2;P2;SDS_P1;SDS_P2;PMS_P1;PMS_P2;Temp;Humidity;BMP_temperature;BMP_pressure;BME280_temperature;BME280_humidity;BME280_pressure;Samples;Min_cycle;Max_cycle;Signal;HPM_P1;HPM_P2
2021/09/16 00:02:05;;;;;;;2.47;1.38;;;;;;;23.63;48.24;101286.69;4993952;28;20023;-61
2021/09/16 00:04:30;;;;;;;3.67;1.98;;;;;;;23.57;47.98;101292.97;4992854;28;20034;-61
2021/09/16 00:06:55;;;;;;;4.13;1.10;;;;;;;23.56;47.51;101302.19;4993930;28;20030;-60
2021/09/16 00:09:21;;;;;;;8.48;1.40;;;;;;;23.54;48.14;101304.31;4993948;28;20471;-61
2021/09/16 00:11:46;;;;;;;5.85;1.27;;;;;;;23.50;48.50;101297.56;4994019;28;20034;-60
2021/09/16 00:14:12;;;;;;;5.38;1.33;;;;;;;23.48;47.57;101296.91;4993747;28;20018;-60
2021/09/16 00:16:37;;;;;;;3.33;0.90;;;;;;;23.43;47.88;101285.72;4994048;28;20391;-60
2021/09/16 00:19:02;;;;;;;1.75;0.77;;;;;;;23.42;48.03;101289.50;4993934;28;20030;-61
2021/09/16 00:21:28;;;;;;;3.65;1.20;;;;;;;23.40;48.58;101299.81;4996056;28;20049;-60
2021/09/16 00:23:53;;;;;;;2.97;1.08;;;;;;;23.38;48.52;101299.16;4997814;28;20367;-60
2021/09/16 00:26:18;;;;;;;1.80;1.10;;;;;;;23.35;48.13;101299.53;4996314;28;20057;-61
2021/09/16 00:28:44;;;;;;;10.60;1.40;;;;;;;23.34;47.64;101306.03;4997570;28;20018;-61
2021/09/16 00:31:09;;;;;;;1.30;0.90;;;;;;;23.33;47.80;101306.25;4997617;28;20057;-60
2021/09/16 00:33:34;;;;;;;6.30;1.35;;;;;;;23.26;48.21;101298.00;4997356;28;20105;-61
2021/09/16 00:36:00;;;;;;;5.55;1.60;;;;;;;23.28;48.31;101308.75;4997469;28;20058;-60
2021/09/16 00:38:26;;;;;;;3.58;0.90;;;;;;;23.25;48.53;101315.47;4997563;28;20018;-60
2021/09/16 00:40:51;;;;;;;6.55;1.80;;;;;;;23.22;47.80;101313.13;4997235;28;20022;-60
2021/09/16 00:43:17;;;;;;;5.05;1.23;;;;;;;23.20;47.60;101315.19;4997326;28;20034;-60
2021/09/16 00:45:42;;;;;;;6.53;1.27;;;;;;;23.17;48.61;101310.16;4997057;28;20114;-61
2021/09/16 00:48:07;;;;;;;3.08;1.10;;;;;;;23.13;47.71;101301.50;4995936;28;20026;-61
2021/09/16 00:50:36;;;;;;;2.53;1.17;;;;;;;23.11;48.10;101308.22;4997037;28;20076;-60
2021/09/16 00:53:01;;;;;;;1.65;1.20;;;;;;;23.04;47.59;101299.09;4996912;28;20033;-61
2021/09/16 00:55:27;;;;;;;4.13;1.95;;;;;;;23.03;47.64;101311.09;4996984;28;20046;-61
2021/09/16 00:57:55;;;;;;;6.40;1.50;;;;;;;22.95;48.51;101300.28;4996895;28;20034;-61
2021/09/16 01:00:21;;;;;;;3.10;0.95;;;;;;;22.94;48.42;101304.06;4997080;28;20026;-60
2021/09/16 01:02:46;;;;;;;3.92;1.08;;;;;;;22.89;47.85;101315.59;4995911;28;20085;-62
2021/09/16 01:05:12;;;;;;;1.17;0.90;;;;;;;22.83;48.07;101316.41;4996804;28;20030;-62
2021/09/16 01:07:39;;;;;;;4.55;1.17;;;;;;;22.77;48.41;101310.88;4996761;28;20038;-60
2021/09/16 01:10:09;;;;;;;1.42;0.95;;;;;;;22.74;48.06;101306.66;4996819;28;20467;-60
2021/09/16 01:12:35;;;;;;;2.05;1.00;;;;;;;22.71;48.06;101312.50;4996515;28;20033;-61
2021/09/16 01:15:01;;;;;;;4.00;1.60;;;;;;;22.68;47.81;101317.50;4996535;28;20109;-60
2021/09/16 01:17:26;;;;;;;4.32;1.15;;;;;;;22.62;47.66;101306.28;4996574;28;20438;-61
2021/09/16 01:19:51;;;;;;;2.42;1.17;;;;;;;22.55;48.49;101312.75;4995426;28;20030;-61
2021/09/16 01:22:21;;;;;;;5.75;1.40;;;;;;;22.48;48.55;101315.41;4996386;28;20487;-61
2021/09/16 01:24:48;;;;;;;3.10;1.20;;;;;;;22.45;47.58;101326.69;4996633;28;20033;-61
2021/09/16 01:27:13;;;;;;;6.03;1.40;;;;;;;22.41;48.68;101319.09;4996498;28;20022;-61
2021/09/16 01:29:39;;;;;;;2.88;0.80;;;;;;;22.38;48.12;101325.81;4996464;28;20098;-60
2021/09/16 01:32:06;;;;;;;3.63;1.17;;;;;;;22.33;48.41;101324.69;4995673;28;20034;-61
2021/09/16 01:34:32;;;;;;;6.57;1.00;;;;;;;22.33;48.94;101328.28;4995319;28;20030;-60
2021/09/16 01:36:57;;;;;;;5.03;1.23;;;;;;;22.32;48.05;101329.31;4996392;28;20029;-61
2021/09/16 01:39:23;;;;;;;6.07;2.13;;;;;;;22.29;49.01;101335.16;4995170;28;20474;-61
2021/09/16 01:41:49;;;;;;;2.83;2.17;;;;;;;22.30;48.14;101336.84;4995990;28;20422;-61
2021/09/16 01:44:14;;;;;;;3.15;1.27;;;;;;;22.30;47.86;101342.31;4995919;28;20030;-61
2021/09/16 01:46:40;;;;;;;8.05;2.00;;;;;;;22.29;48.19;101340.59;4994987;28;20038;-61
2021/09/16 01:49:05;;;;;;;4.32;1.48;;;;;;;22.24;48.64;101340.34;4996009;28;20542;-61
2021/09/16 01:51:34;;;;;;;3.70;1.70;;;;;;;22.27;48.83;101352.75;4995922;28;20037;-61
2021/09/16 01:54:00;;;;;;;3.92;1.30;;;;;;;22.27;48.84;101347.28;4995712;28;20065;-61
2021/09/16 01:56:26;;;;;;;2.42;1.33;;;;;;;22.25;48.88;101346.66;4995572;28;20050;-61
2021/09/16 01:58:52;;;;;;;2.22;1.20;;;;;;;22.23;47.97;101346.81;4995989;28;20030;-61
2021/09/16 02:01:17;;;;;;;5.35;1.42;;;;;;;22.20;48.83;101344.47;4995897;28;20026;-61
2021/09/16 02:03:43;;;;;;;3.72;1.40;;;;;;;22.16;48.29;101343.19;4995993;28;20034;-61
2021/09/16 02:06:08;;;;;;;2.17;1.30;;;;;;;22.16;47.89;101345.91;4995575;28;20487;-61
2021/09/16 02:08:33;;;;;;;5.13;1.98;;;;;;;22.16;47.99;101339.59;4995880;28;20030;-61
2021/09/16 02:10:59;;;;;;;4.88;1.15;;;;;;;22.14;49.01;101342.50;4996010;28;20376;-61
2021/09/16 02:13:25;;;;;;;2.17;1.40;;;;;;;22.13;48.69;101351.75;4994703;28;20026;-61
2021/09/16 02:15:51;;;;;;;4.07;1.20;;;;;;;22.09;48.31;101361.34;4995277;28;20022;-61
2021/09/16 02:18:16;;;;;;;2.28;0.93;;;;;;;22.03;47.85;101356.66;4995674;28;20049;-60
2021/09/16 02:20:41;;;;;;;4.32;1.10;;;;;;;22.00;48.07;101360.63;4994995;28;20034;-60
2021/09/16 02:23:07;;;;;;;2.45;1.02;;;;;;;21.99;48.09;101360.81;4995602;28;20030;-61
2021/09/16 02:25:32;;;;;;;6.00;1.73;;;;;;;21.97;48.90;101362.91;4995515;28;20510;-60
2021/09/16 02:27:57;;;;;;;0.60;0.60;;;;;;;21.93;48.36;101367.03;4994201;28;20030;-60
2021/09/16 02:30:23;;;;;;;2.08;1.15;;;;;;;21.82;48.59;101362.03;4995144;28;20030;-60
2021/09/16 02:32:48;;;;;;;4.50;1.52;;;;;;;21.85;49.01;101375.28;4995349;28;20026;-60
2021/09/16 02:35:13;;;;;;;2.40;1.20;;;;;;;21.81;48.89;101369.34;4994052;28;20065;-60
2021/09/16 02:37:39;;;;;;;1.05;0.90;;;;;;;21.82;48.98;101378.38;4995343;28;20061;-60
2021/09/16 02:40:08;;;;;;;2.35;1.23;;;;;;;21.81;48.50;101379.41;4995036;28;20022;-60
2021/09/16 02:42:34;;;;;;;5.93;1.85;;;;;;;21.80;48.41;101383.19;4995101;28;20044;-60
2021/09/16 02:44:59;;;;;;;1.40;1.25;;;;;;;21.80;48.52;101383.19;4994756;28;20458;-60
2021/09/16 02:47:25;;;;;;;4.68;1.40;;;;;;;21.79;48.76;101389.66;4995187;28;20030;-60
2021/09/16 02:49:50;;;;;;;3.92;1.20;;;;;;;21.78;48.26;101390.69;4994968;28;20035;-60
2021/09/16 02:52:15;;;;;;;9.35;1.70;;;;;;;21.75;48.21;101385.63;4994841;28;20031;-60
2021/09/16 02:54:41;;;;;;;6.00;1.52;;;;;;;21.76;48.36;101388.16;4994956;28;20054;-60
2021/09/16 02:57:06;;;;;;;6.72;1.45;;;;;;;21.75;48.18;101386.47;4993802;28;20503;-60
2021/09/16 02:59:31;;;;;;;5.90;1.48;;;;;;;21.73;48.39;101390.41;4994803;28;20379;-60
2021/09/16 03:01:57;;;;;;;5.13;1.92;;;;;;;21.75;49.23;101393.78;4993884;28;20391;-60
2021/09/16 03:04:22;;;;;;;3.97;1.88;;;;;;;21.71;48.88;101389.78;4995127;28;20391;-60
2021/09/16 03:06:47;;;;;;;5.88;1.80;;;;;;;21.71;49.11;101389.78;4994638;28;20028;-60
2021/09/16 03:09:13;;;;;;;5.57;1.50;;;;;;;21.71;49.15;101387.91;4995035;28;20027;-60
2021/09/16 03:11:38;;;;;;;9.02;1.60;;;;;;;21.69;48.63;101392.66;4994914;28;20022;-61
2021/09/16 03:14:04;;;;;;;3.83;0.98;;;;;;;21.70;48.94;101390.78;4994890;28;20052;-60
2021/09/16 03:16:29;;;;;;;2.22;1.50;;;;;;;21.69;49.26;101391.84;4994912;28;20109;-60
2021/09/16 03:18:55;;;;;;;3.50;1.35;;;;;;;21.65;48.49;101388.63;4994731;28;20041;-60
2021/09/16 03:21:20;;;;;;;3.85;1.70;;;;;;;21.57;48.84;101382.44;4994837;28;20037;-60
2021/09/16 03:23:45;;;;;;;7.70;1.50;;;;;;;21.59;49.26;101388.53;4994698;28;20037;-60
2021/09/16 03:26:11;;;;;;;7.07;1.70;;;;;;;21.55;48.49;101392.69;4995090;28;20022;-60
2021/09/16 03:28:40;;;;;;;6.95;2.72;;;;;;;21.53;48.38;101400.19;4994691;28;20045;-60
2021/09/16 03:31:06;;;;;;;2.90;1.50;;;;;;;21.50;48.81;101393.22;4994849;28;20019;-60
2021/09/16 03:33:32;;;;;;;5.07;1.90;;;;;;;21.47;49.28;101391.72;4994455;28;20034;-60
2021/09/16 03:35:57;;;;;;;5.05;1.88;;;;;;;21.50;49.28;101392.41;4994711;28;20077;-60
2021/09/16 03:38:23;;;;;;;4.47;1.83;;;;;;;21.50;48.27;101404.13;4993657;28;20030;-60
2021/09/16 03:40:48;;;;;;;2.20;1.95;;;;;;;21.51;49.18;101399.53;4993748;28;20037;-60
2021/09/16 03:43:13;;;;;;;7.22;2.30;;;;;;;21.51;48.71;101394.06;4994838;28;20518;-60
2021/09/16 03:45:39;;;;;;;5.28;1.90;;;;;;;21.46;49.06;101386.47;4994856;28;20062;-60
2021/09/16 03:48:04;;;;;;;6.25;1.83;;;;;;;21.50;49.54;101386.94;4994677;28;20030;-60
2021/09/16 03:50:30;;;;;;;4.03;2.42;;;;;;;21.48;49.24;101387.97;4995012;28;20105;-61
2021/09/16 03:52:55;;;;;;;6.55;2.13;;;;;;;21.48;48.73;101390.69;4994718;28;20049;-60
2021/09/16 03:55:20;;;;;;;4.82;1.70;;;;;;;21.44;49.19;101386.63;4994670;28;20058;-60
2021/09/16 03:57:46;;;;;;;6.63;2.17;;;;;;;21.44;49.04;101389.38;4997369;28;20052;-61
2021/09/16 04:00:12;;;;;;;2.90;2.00;;;;;;;21.44;49.19;101392.09;4997075;28;20046;-60
2021/09/16 04:02:38;;;;;;;8.15;2.60;;;;;;;21.45;49.52;101396.53;4998349;28;20157;-60
2021/09/16 04:05:04;;;;;;;6.22;2.40;;;;;;;21.43;49.47;101387.69;4998457;28;20467;-60
2021/09/16 04:07:30;;;;;;;5.95;2.22;;;;;;;21.42;48.92;101391.44;4997537;28;20037;-61
2021/09/16 04:09:55;;;;;;;3.42;1.83;;;;;;;21.41;49.02;101386.19;4998628;28;20023;-60
2021/09/16 04:12:20;;;;;;;4.25;2.10;;;;;;;21.39;49.38;101383.63;4998319;28;20077;-60
2021/09/16 04:14:46;;;;;;;4.50;2.92;;;;;;;21.39;49.65;101385.50;4998640;28;20379;-60
2021/09/16 04:17:11;;;;;;;4.45;2.15;;;;;;;21.36;49.43;101396.78;4998658;28;20038;-60
2021/09/16 04:19:37;;;;;;;7.85;2.63;;;;;;;21.30;49.64;101382.00;4998482;28;20034;-60
2021/09/16 04:22:02;;;;;;;7.85;2.67;;;;;;;21.35;49.56;101393.22;4998494;28;20030;-60
2021/09/16 04:24:28;;;;;;;8.18;2.70;;;;;;;21.34;49.72;101383.34;4998009;28;20372;-60
2021/09/16 04:26:53;;;;;;;4.72;2.00;;;;;;;21.32;49.27;101382.69;4997180;28;20034;-60
2021/09/16 04:29:19;;;;;;;6.07;3.00;;;;;;;21.32;50.03;101384.56;4996908;28;20360;-60
2021/09/16 04:31:44;;;;;;;7.28;2.55;;;;;;;21.30;49.13;101376.56;4998135;28;20050;-60
2021/09/16 04:34:10;;;;;;;6.40;2.90;;;;;;;21.31;49.51;101380.13;4997128;28;20085;-60
2021/09/16 04:36:36;;;;;;;6.43;2.45;;;;;;;21.24;49.68;101380.06;4998298;28;20041;-60
2021/09/16 04:39:03;;;;;;;5.53;2.60;;;;;;;21.23;49.52;101377.50;4981114;28;20064;-61
2021/09/16 04:41:29;;;;;;;4.70;2.78;;;;;;;21.24;49.82;101388.22;4997328;28;20064;-60
2021/09/16 04:43:54;;;;;;;9.57;3.33;;;;;;;21.21;49.29;101380.41;4998182;28;20057;-60
2021/09/16 04:46:19;;;;;;;4.53;2.70;;;;;;;21.21;50.02;101382.28;4998161;28;20034;-60
2021/09/16 04:48:45;;;;;;;5.65;3.00;;;;;;;21.17;49.67;101384.53;4998051;28;20030;-60
2021/09/16 04:51:10;;;;;;;3.53;2.80;;;;;;;21.16;50.13;101382.00;4998022;28;20030;-60
2021/09/16 04:53:35;;;;;;;7.72;3.45;;;;;;;21.15;49.48;101383.88;4998343;28;20026;-60
2021/09/16 04:56:01;;;;;;;5.50;2.90;;;;;;;21.16;49.38;101391.00;4997741;28;20089;-60
2021/09/16 04:58:26;;;;;;;4.72;2.78;;;;;;;21.15;49.13;101388.47;4997757;28;20101;-60
2021/09/16 05:00:51;;;;;;;5.18;3.22;;;;;;;21.15;49.97;101402.09;4998154;28;20022;-60
2021/09/16 05:03:17;;;;;;;11.68;4.30;;;;;;;21.14;49.88;101397.66;4998009;28;20101;-60
2021/09/16 05:05:42;;;;;;;6.45;3.10;;;;;;;21.12;49.68;101399.72;4998322;28;20030;-60
2021/09/16 05:08:08;;;;;;;6.93;2.92;;;;;;;21.06;49.82;101395.84;4995703;28;20026;-60
2021/09/16 05:10:33;;;;;;;7.55;3.58;;;;;;;21.08;49.57;101410.16;4998005;28;20084;-60
2021/09/16 05:12:59;;;;;;;9.73;3.05;;;;;;;21.04;49.75;101400.63;4997194;28;20109;-60
2021/09/16 05:15:25;;;;;;;8.00;3.40;;;;;;;21.06;49.58;101412.19;4998153;28;20157;-61
2021/09/16 05:17:50;;;;;;;7.53;3.88;;;;;;;21.07;50.47;101408.47;4997767;28;20030;-60
2021/09/16 05:20:16;;;;;;;10.98;4.00;;;;;;;21.09;49.65;101411.84;4996401;28;20360;-60
2021/09/16 05:22:41;;;;;;;9.65;3.15;;;;;;;21.12;50.35;101410.63;4996191;28;20061;-60
2021/09/16 05:25:07;;;;;;;6.95;3.05;;;;;;;21.16;49.56;101406.53;4997957;28;20022;-60
2021/09/16 05:27:33;;;;;;;9.93;3.78;;;;;;;21.18;49.93;101410.75;4998698;28;20034;-61
2021/09/16 05:29:58;;;;;;;10.50;3.83;;;;;;;21.23;50.58;101416.50;4998764;28;20049;-60
2021/09/16 05:32:27;;;;;;;9.07;3.70;;;;;;;21.31;50.09;101421.00;4993484;28;20547;-60
2021/09/16 05:34:54;;;;;;;8.85;3.47;;;;;;;21.36;49.87;101424.88;4980576;28;20463;-60
2021/09/16 05:37:21;;;;;;;11.10;3.90;;;;;;;21.42;50.13;101436.94;4993031;28;20034;-60
2021/09/16 05:39:46;;;;;;;8.90;3.25;;;;;;;21.46;50.25;101430.09;4977210;28;20050;-60
2021/09/16 05:42:12;;;;;;;5.53;3.38;;;;;;;21.52;50.69;101445.72;4975969;28;20026;-60
2021/09/16 05:44:37;;;;;;;10.30;3.53;;;;;;;21.56;49.72;101440.72;4976878;28;20035;-61
2021/09/16 05:47:03;;;;;;;7.80;3.17;;;;;;;21.63;50.67;101433.50;4976771;28;20027;-60
2021/09/16 05:49:28;;;;;;;7.32;3.40;;;;;;;21.67;50.20;101427.47;4976796;28;20026;-60
2021/09/16 05:51:54;;;;;;;9.23;3.53;;;;;;;21.75;49.75;101431.97;4976945;28;20114;-60
2021/09/16 05:54:20;;;;;;;10.63;3.88;;;;;;;21.77;49.80;101438.97;4976779;28;20062;-60
2021/09/16 05:56:47;;;;;;;9.93;3.65;;;;;;;21.82;49.57;101435.66;4976650;28;20054;-60
2021/09/16 05:59:16;;;;;;;7.60;3.10;;;;;;;21.85;49.96;101440.75;4991538;28;20031;-60
2021/09/16 06:01:41;;;;;;;13.38;3.50;;;;;;;21.89;49.56;101444.81;4975457;28;20029;-61
2021/09/16 06:04:07;;;;;;;11.93;3.90;;;;;;;21.95;49.98;101444.06;4976582;28;20109;-60
2021/09/16 06:06:33;;;;;;;10.77;3.72;;;;;;;22.05;49.72;101439.19;4976772;28;20031;-62
2021/09/16 06:08:58;;;;;;;7.97;3.13;;;;;;;22.13;50.13;101422.72;4976406;28;20069;-61
2021/09/16 06:11:25;;;;;;;8.77;3.78;;;;;;;22.25;50.08;101431.28;4976193;28;20039;-62
2021/09/16 06:13:51;;;;;;;11.32;3.83;;;;;;;22.40;49.02;101440.28;4976377;28;20023;-61
2021/09/16 06:16:16;;;;;;;9.98;4.82;;;;;;;22.53;49.31;101441.25;4976392;28;20480;-62
2021/09/16 06:18:42;;;;;;;8.95;3.60;;;;;;;22.71;48.89;101443.63;4974883;28;20046;-62
2021/09/16 06:21:07;;;;;;;6.53;3.30;;;;;;;22.85;49.22;101439.13;4976242;28;20035;-61
2021/09/16 06:23:33;;;;;;;8.88;3.70;;;;;;;23.00;49.38;101443.50;4991512;28;20027;-62
2021/09/16 06:25:59;;;;;;;10.38;3.58;;;;;;;23.12;48.70;101435.63;4975976;28;20031;-62
2021/09/16 06:28:24;;;;;;;9.60;3.28;;;;;;;23.24;48.84;101428.59;4976025;28;20388;-62
2021/09/16 06:30:50;;;;;;;8.40;3.58;;;;;;;23.41;47.96;101435.50;4977810;28;20098;-62
2021/09/16 06:33:15;;;;;;;8.30;3.45;;;;;;;23.56;48.67;101438.97;4994376;28;20110;-62
2021/09/16 06:35:41;;;;;;;9.93;3.80;;;;;;;23.69;48.05;101441.81;4995012;28;20030;-62
2021/09/16 06:38:07;;;;;;;9.50;3.17;;;;;;;23.81;48.09;101438.53;4994796;28;20041;-62
2021/09/16 06:40:33;;;;;;;9.25;3.15;;;;;;;23.97;48.47;101443.69;4994939;28;20034;-62
2021/09/16 06:42:58;;;;;;;7.35;3.17;;;;;;;24.08;47.84;101448.59;4995099;28;20492;-62
2021/09/16 06:45:24;;;;;;;9.07;3.85;;;;;;;24.20;47.53;101449.75;4995020;28;20037;-62
2021/09/16 06:47:49;;;;;;;12.52;3.85;;;;;;;24.31;48.15;101443.69;4994761;28;20038;-62
2021/09/16 06:50:16;;;;;;;8.70;3.40;;;;;;;24.48;47.57;101452.41;4994719;28;20095;-62
2021/09/16 06:52:41;;;;;;;11.25;3.33;;;;;;;24.62;47.55;101445.91;4993469;28;20073;-62
2021/09/16 06:55:07;;;;;;;9.02;3.58;;;;;;;24.72;46.86;101436.25;4994984;28;20411;-62
2021/09/16 06:57:33;;;;;;;3.85;2.83;;;;;;;24.92;47.00;101440.97;4994807;28;20027;-62
2021/09/16 06:59:58;;;;;;;7.50;3.17;;;;;;;24.98;46.79;101429.16;4994703;28;20493;-62
2021/09/16 07:02:25;;;;;;;6.90;3.05;;;;;;;25.20;47.08;101445.22;4994833;28;20053;-61
2021/09/16 07:04:51;;;;;;;8.15;3.03;;;;;;;25.34;46.60;101437.84;4994515;28;20096;-62
2021/09/16 07:07:17;;;;;;;6.93;2.83;;;;;;;25.45;46.41;101442.69;4994776;28;20026;-61
2021/09/16 07:09:43;;;;;;;6.93;2.55;;;;;;;25.60;46.35;101445.25;4994635;28;20034;-62
2021/09/16 07:12:09;;;;;;;12.73;2.80;;;;;;;25.77;46.01;101452.81;4993389;28;20505;-62
2021/09/16 07:14:34;;;;;;;6.40;2.60;;;;;;;25.93;46.24;101452.41;4994672;28;20161;-62
2021/09/16 07:17:00;;;;;;;5.28;2.53;;;;;;;26.12;45.99;101455.28;4993525;28;20034;-61
2021/09/16 07:19:26;;;;;;;6.57;2.60;;;;;;;26.25;45.64;101450.63;4994768;28;20468;-61
2021/09/16 07:21:53;;;;;;;8.38;3.10;;;;;;;26.42;45.40;101445.50;4994601;28;20483;-61
2021/09/16 07:24:19;;;;;;;6.65;2.75;;;;;;;26.60;44.93;101446.44;4994733;28;20032;-61
2021/09/16 07:26:50;;;;;;;8.98;2.50;;;;;;;26.75;45.42;101456.31;4994858;28;20038;-61
2021/09/16 07:29:25;;;;;;;4.65;2.33;;;;;;;26.93;44.59;101443.56;4994641;28;20018;-61
2021/09/16 07:31:51;;;;;;;5.80;2.33;;;;;;;27.09;44.88;101448.53;4993596;28;20058;-61
2021/09/16 07:34:18;;;;;;;6.90;2.17;;;;;;;27.23;44.69;101454.78;4994388;28;20034;-61
2021/09/16 07:36:45;;;;;;;7.18;1.88;;;;;;;27.34;44.68;101450.44;4993159;28;20054;-61
2021/09/16 07:39:11;;;;;;;7.53;1.85;;;;;;;27.45;43.90;101460.78;4994377;28;20105;-61
2021/09/16 07:41:37;;;;;;;6.45;2.05;;;;;;;27.59;44.65;101454.09;4994549;28;20030;-61
2021/09/16 07:44:04;;;;;;;3.20;1.70;;;;;;;27.73;43.18;101466.66;4994393;28;20076;-61
2021/09/16 07:46:30;;;;;;;5.50;2.25;;;;;;;27.86;43.63;101454.69;4993121;28;20031;-61
2021/09/16 07:48:57;;;;;;;4.03;2.13;;;;;;;28.01;43.47;101464.25;4994515;28;20402;-62
2021/09/16 07:51:23;;;;;;;6.43;2.35;;;;;;;28.18;43.79;101470.03;4993206;28;20390;-61
2021/09/16 07:53:48;;;;;;;4.43;2.20;;;;;;;28.34;43.72;101471.38;4994478;28;20130;-61
2021/09/16 07:56:14;;;;;;;9.13;3.28;;;;;;;28.48;42.88;101470.94;4994120;28;20129;-61
2021/09/16 07:58:40;;;;;;;7.28;2.63;;;;;;;28.65;42.54;101476.69;4994086;28;20422;-61
2021/09/16 08:01:06;;;;;;;4.35;2.10;;;;;;;28.87;42.31;101475.97;4994445;28;20463;-61
2021/09/16 08:03:31;;;;;;;4.25;2.13;;;;;;;29.00;42.53;101472.19;4993877;28;20030;-61
2021/09/16 08:05:57;;;;;;;4.20;1.83;;;;;;;29.18;42.12;101479.56;4994453;28;20046;-61
2021/09/16 08:08:22;;;;;;;7.28;2.53;;;;;;;29.16;41.75;101479.81;4994172;28;20026;-62
2021/09/16 08:10:48;;;;;;;8.75;2.58;;;;;;;29.35;41.57;101475.06;4994065;28;20133;-61
2021/09/16 08:13:13;;;;;;;4.85;2.40;;;;;;;29.52;41.78;101475.22;4992883;28;20113;-61
2021/09/16 08:15:39;;;;;;;8.55;3.20;;;;;;;29.70;41.83;101480.66;4994178;28;20026;-61
2021/09/16 08:18:04;;;;;;;5.50;2.72;;;;;;;29.83;41.24;101491.50;4994019;28;20533;-61
2021/09/16 08:20:30;;;;;;;5.88;2.85;;;;;;;30.04;40.69;101477.06;4993998;28;20037;-61
2021/09/16 08:22:55;;;;;;;8.40;3.20;;;;;;;29.87;41.19;101481.66;4993915;28;20034;-61
2021/09/16 08:25:21;;;;;;;7.53;2.75;;;;;;;30.10;40.81;101480.78;4994024;28;20027;-61
2021/09/16 08:27:46;;;;;;;7.70;3.58;;;;;;;30.37;40.45;101479.22;4993719;28;20471;-61
2021/09/16 08:30:13;;;;;;;8.13;3.28;;;;;;;30.41;40.21;101467.44;4993881;28;20483;-62
2021/09/16 08:32:39;;;;;;;5.60;3.05;;;;;;;30.72;39.93;101473.56;4993898;28;20034;-62
2021/09/16 08:35:06;;;;;;;6.80;3.20;;;;;;;30.65;40.07;101473.75;4992805;28;20368;-62
2021/09/16 08:37:31;;;;;;;8.55;3.78;;;;;;;30.73;39.62;101476.13;4992809;28;20467;-58
2021/09/16 08:39:57;;;;;;;5.53;3.33;;;;;;;30.87;39.64;101477.50;4993858;28;20034;-59
2021/09/16 08:42:24;;;;;;;10.40;3.08;;;;;;;30.90;39.54;101467.88;4995559;28;20031;-59
2021/09/16 08:44:51;;;;;;;5.97;3.75;;;;;;;31.08;38.78;101478.75;4997953;28;20033;-59
2021/09/16 08:47:17;;;;;;;8.25;3.58;;;;;;;31.05;39.15;101477.31;4997384;28;20117;-59
2021/09/16 08:49:42;;;;;;;4.03;3.00;;;;;;;30.87;39.60;101476.66;4997450;28;20093;-59
2021/09/16 08:52:09;;;;;;;8.18;3.20;;;;;;;30.66;39.78;101483.69;4997179;28;20556;-59
2021/09/16 08:54:35;;;;;;;8.93;2.97;;;;;;;30.72;39.43;101481.88;4997267;28;20029;-59
2021/09/16 08:57:02;;;;;;;4.20;2.78;;;;;;;30.56;39.83;101487.13;4997186;28;20077;-59
2021/09/16 08:59:28;;;;;;;7.55;2.58;;;;;;;30.52;39.59;101483.16;4995952;28;20454;-59
2021/09/16 09:01:54;;;;;;;4.57;2.15;;;;;;;30.78;38.99;101472.59;4995775;28;20498;-59
2021/09/16 09:04:20;;;;;;;2.70;2.08;;;;;;;30.73;39.03;101475.28;4995796;28;20030;-59
2021/09/16 09:06:45;;;;;;;3.75;1.63;;;;;;;30.76;38.85;101470.09;4997085;28;20442;-58
2021/09/16 09:09:15;;;;;;;4.55;1.98;;;;;;;30.77;38.39;101479.22;4996487;28;20018;-59
2021/09/16 09:11:54;;;;;;;5.65;2.00;;;;;;;30.96;38.54;101486.28;4996982;28;20058;-58
2021/09/16 09:14:31;;;;;;;6.47;2.00;;;;;;;31.24;37.97;101486.22;4997427;28;20058;-59
2021/09/16 09:16:58;;;;;;;2.63;1.52;;;;;;;31.27;38.09;101494.03;4996774;28;20053;-59
2021/09/16 09:19:25;;;;;;;2.47;1.70;;;;;;;31.37;37.75;101480.41;4996948;28;20034;-59
2021/09/16 09:21:51;;;;;;;3.65;1.70;;;;;;;31.52;37.24;101482.63;4995517;28;20051;-60
2021/09/16 09:24:38;;;;;;;3.95;1.75;;;;;;;31.68;36.81;101479.84;4996782;28;20037;-59
2021/09/16 09:27:23;;;;;;;4.13;1.80;;;;;;;31.15;37.99;101484.97;4996838;28;20077;-59
2021/09/16 09:30:08;;;;;;;4.25;1.70;;;;;;;30.93;38.33;101493.13;4996414;28;20051;-59
2021/09/16 09:32:44;;;;;;;2.45;1.40;;;;;;;30.62;38.32;101495.53;4996836;28;20082;-59
2021/09/16 09:35:27;;;;;;;2.00;1.60;;;;;;;30.50;37.94;101504.69;4997198;28;20030;-59
2021/09/16 09:37:53;;;;;;;3.88;1.30;;;;;;;30.08;38.15;101494.84;4996700;28;20023;-58
2021/09/16 09:40:50;;;;;;;4.68;1.70;;;;;;;30.97;37.06;101499.03;4996290;28;20081;-58
2021/09/16 09:43:23;;;;;;;2.22;1.40;;;;;;;33.80;32.21;101493.56;4988076;28;20194;-58
2021/09/16 09:46:05;;;;;;;3.08;1.23;;;;;;;33.78;32.90;101487.41;4996259;28;20407;-59
2021/09/16 09:48:32;;;;;;;;;;;;;;;33.74;34.89;101489.06;4996663;28;20033;-59
2021/09/16 09:50:58;;;;;;;2.38;1.35;;;;;;;33.87;34.92;101485.81;4996210;28;19932;-59
2021/09/16 09:53:23;;;;;;;1.52;1.35;;;;;;;33.81;35.05;101488.84;4995835;28;20447;-60
2021/09/16 09:55:52;;;;;;;5.68;1.38;;;;;;;33.04;34.67;101493.91;4996170;28;20050;-60
2021/09/16 09:58:32;;;;;;;1.23;1.08;;;;;;;33.89;34.11;101486.38;4996307;28;20022;-59
2021/09/16 10:00:57;;;;;;;5.93;2.08;;;;;;;34.48;32.59;101488.97;4996122;28;20029;-59
2021/09/16 10:03:28;;;;;;;3.13;1.27;;;;;;;35.10;32.86;101488.97;4996117;28;20475;-59
2021/09/16 10:05:54;;;;;;;4.43;1.35;;;;;;;35.71;31.77;101477.88;4996222;28;20546;-59
2021/09/16 10:08:20;;;;;;;1.02;0.90;;;;;;;34.89;32.64;101484.44;4996052;28;20046;-59
2021/09/16 10:10:50;;;;;;;2.42;1.13;;;;;;;34.17;33.36;101478.81;4995851;28;20019;-59
2021/09/16 10:13:19;;;;;;;3.03;1.27;;;;;;;33.69;33.36;101489.03;4996003;28;20495;-59
2021/09/16 10:15:46;;;;;;;2.45;1.25;;;;;;;33.27;34.51;101488.09;4995536;28;20444;-60
2021/09/16 10:18:11;;;;;;;3.22;1.25;;;;;;;33.80;32.93;101490.78;4995866;28;20065;-60
2021/09/16 10:20:37;;;;;;;2.83;1.50;;;;;;;33.37;33.89;101488.16;4995615;28;20057;-59
2021/09/16 10:23:07;;;;;;;2.85;1.38;;;;;;;32.83;33.93;101487.31;4995533;28;20026;-60
2021/09/16 10:25:33;;;;;;;5.93;1.25;;;;;;;32.35;34.86;101490.84;4995484;28;20109;-59
2021/09/16 10:28:04;;;;;;;3.83;1.08;;;;;;;31.99;35.00;101492.25;4994765;28;20033;-59
2021/09/16 10:30:31;;;;;;;3.08;0.88;;;;;;;31.70;35.21;101485.97;4995459;28;20022;-59
2021/09/16 10:33:05;;;;;;;0.98;0.85;;;;;;;31.37;34.83;101482.31;4995598;28;20075;-59
2021/09/16 10:35:32;;;;;;;2.10;0.77;;;;;;;31.05;35.19;101487.53;4995399;28;20029;-59
2021/09/16 10:38:17;;;;;;;2.42;1.10;;;;;;;31.86;34.29;101480.66;4994204;28;20030;-59
2021/09/16 10:40:43;;;;;;;2.90;0.82;;;;;;;33.10;32.09;101481.78;4995317;28;20074;-60
2021/09/16 10:43:08;;;;;;;1.92;1.25;;;;;;;33.61;32.68;101477.56;4995064;28;20057;-59
2021/09/16 10:45:40;;;;;;;2.25;1.08;;;;;;;33.06;33.62;101477.84;4995408;28;20476;-59
2021/09/16 10:48:18;;;;;;;1.55;0.95;;;;;;;32.83;33.12;101479.81;4995554;28;20076;-60
2021/09/16 10:50:49;;;;;;;2.20;0.75;;;;;;;32.40;33.86;101482.59;4995232;28;20382;-59
2021/09/16 10:53:38;;;;;;;1.92;0.70;;;;;;;32.05;34.55;101482.09;4995593;28;20026;-59
2021/09/16 10:56:06;;;;;;;1.17;0.63;;;;;;;31.70;34.31;101485.97;4994691;28;20120;-59
2021/09/16 10:58:32;;;;;;;3.33;0.70;;;;;;;31.93;33.69;101478.56;4995330;28;20053;-59
2021/09/16 11:00:57;;;;;;;3.30;0.75;;;;;;;33.06;31.93;101487.03;4995285;28;20105;-59
2021/09/16 11:03:23;;;;;;;4.78;0.50;;;;;;;33.92;31.44;101477.50;4993913;28;20109;-59
2021/09/16 11:05:51;;;;;;;1.17;0.73;;;;;;;34.62;31.47;101481.03;4993159;28;20030;-60
2021/09/16 11:08:19;;;;;;;4.38;0.73;;;;;;;35.18;30.68;101470.88;4994004;28;20529;-59
2021/09/16 11:10:44;;;;;;;0.68;0.60;;;;;;;34.74;31.11;101476.88;4995055;28;20022;-59
2021/09/16 11:13:36;;;;;;;2.40;0.90;;;;;;;34.54;30.93;101474.81;4995055;28;20053;-59
2021/09/16 11:16:02;;;;;;;1.67;0.70;;;;;;;33.97;32.73;101472.00;4994953;28;20019;-60
2021/09/16 11:18:27;;;;;;;1.63;0.80;;;;;;;34.65;30.88;101474.91;4994899;28;20030;-60
2021/09/16 11:20:58;;;;;;;0.95;0.60;;;;;;;35.11;31.19;101471.13;4994841;28;20057;-59
2021/09/16 11:23:52;;;;;;;5.95;1.05;;;;;;;35.21;30.17;101476.72;4994823;28;20029;-59